Time;durP1;ratioP1;P1;durP2;ratioP2;P2;SDS_P1;SDS_P2;PMS_P1;PMS_P2;Temp;Humidity;BMP_temperature;BMP_pressure;BME280_temperature;BME280_humidity;BME280_pressure;Samples;Min_cycle;Max_cycle;Signal;HPM_P1;HPM_P2
2022/02/04 00:08:47;;;;;;;1.30;1.30;;;6.90;98.00;;;;;;5093432;28;20448;-67
2022/02/04 00:25:04;;;;;;;1.40;1.30;;;7.50;98.00;;;;;;5093560;28;20457;-67
2022/02/04 00:27:32;;;;;;;1.40;1.30;;;7.50;98.00;;;;;;5093163;28;20449;-67
2022/02/04 00:30:06;;;;;;;1.77;1.60;;;7.60;98.00;;;;;;5092999;28;20500;-67
2022/02/04 00:32:35;;;;;;;2.90;1.37;;;7.60;98.00;;;;;;5092314;28;20487;-67
2022/02/04 00:35:12;;;;;;;2.43;2.23;;;7.70;98.00;;;;;;5092338;28;20553;-67
2022/02/04 00:37:53;;;;;;;1.47;1.17;;;7.60;98.00;;;;;;5090968;28;20476;-67
2022/02/04 00:40:22;;;;;;;2.17;1.77;;;7.50;98.00;;;;;;5092990;28;20461;-67
2022/02/04 00:42:54;;;;;;;2.03;1.50;;;7.50;98.00;;;;;;5092769;28;20449;-67
2022/02/04 00:45:30;;;;;;;2.13;1.37;;;7.30;98.00;;;;;;5092965;28;20475;-67
2022/02/04 00:48:07;;;;;;;1.10;1.10;;;7.30;98.00;;;;;;5092568;28;20866;-67
2022/02/04 00:50:53;;;;;;;1.20;1.10;;;7.40;98.00;;;;;;5092963;28;20955;-67
2022/02/04 00:53:28;;;;;;;1.80;1.10;;;7.40;98.00;;;;;;5092460;28;20462;-67
2022/02/04 00:56:08;;;;;;;1.43;1.33;;;7.40;98.00;;;;;;5092708;28;20451;-67
2022/02/04 01:26:17;;;;;;;1.67;1.50;;;7.40;98.00;;;;;;5092161;28;20474;-67
2022/02/04 01:28:47;;;;;;;1.20;1.00;;;7.30;98.00;;;;;;5091845;28;20844;-67
2022/02/04 01:31:18;;;;;;;1.57;1.20;;;7.30;98.00;;;;;;5091616;28;20513;-67
2022/02/04 01:33:45;;;;;;;1.87;1.53;;;7.30;98.00;;;;;;5091853;28;20463;-67
2022/02/04 01:36:13;;;;;;;1.10;1.00;;;7.30;98.00;;;;;;5091770;28;20457;-67
2022/02/04 01:38:40;;;;;;;1.10;0.90;;;7.30;98.00;;;;;;5091799;28;20488;-67
2022/02/04 01:41:07;;;;;;;1.60;1.30;;;7.30;98.00;;;;;;5091883;28;20947;-67
2022/02/04 01:43:36;;;;;;;1.30;1.20;;;7.40;98.00;;;;;;5091688;28;20458;-67
2022/02/04 01:46:05;;;;;;;1.57;1.20;;;7.50;98.00;;;;;;5090189;28;20953;-67
2022/02/04 01:48:35;;;;;;;1.17;1.00;;;7.50;98.00;;;;;;5091442;28;20465;-67
2022/02/04 01:51:03;;;;;;;2.03;1.50;;;7.50;98.00;;;;;;5092077;28;20492;-67
2022/02/04 01:53:31;;;;;;;1.30;1.20;;;7.40;98.00;;;;;;5091292;28;20504;-67
2022/02/04 01:55:59;;;;;;;1.30;1.10;;;7.30;98.00;;;;;;5091752;28;20447;-67
2022/02/04 01:58:27;;;;;;;1.50;1.40;;;7.30;98.00;;;;;;5091655;28;20524;-67
2022/02/04 02:00:54;;;;;;;1.17;1.00;;;7.30;98.00;;;;;;5091598;28;20515;-67
2022/02/04 02:03:23;;;;;;;1.10;1.07;;;7.30;98.00;;;;;;5091636;28;20484;-67
2022/02/04 02:05:54;;;;;;;2.93;1.47;;;7.40;98.00;;;;;;5091781;28;20484;-67
2022/02/04 02:08:21;;;;;;;1.20;1.10;;;7.40;98.00;;;;;;5091519;28;20490;-67
2022/02/04 02:10:50;;;;;;;1.50;1.20;;;7.40;98.00;;;;;;5091706;28;20456;-67
2022/02/04 02:13:25;;;;;;;2.50;1.40;;;7.50;98.00;;;;;;5091587;28;20481;-67
2022/02/04 02:16:03;;;;;;;1.20;1.00;;;7.40;98.00;;;;;;5091818;28;20529;-67
2022/02/04 02:35:27;;;;;;;5.43;1.30;;;7.20;98.00;;;;;;5091801;28;20462;-67
2022/02/04 02:46:49;;;;;;;1.10;1.10;;;7.20;98.00;;;;;;5085282;28;20961;-67
2022/02/04 02:52:15;;;;;;;1.20;1.13;;;7.20;98.00;;;;;;5094866;28;20465;-67
2022/02/04 03:03:10;;;;;;;1.10;1.00;;;7.40;98.00;;;;;;5094459;28;20514;-67
2022/02/04 03:05:39;;;;;;;1.30;1.17;;;7.40;98.00;;;;;;5094663;28;20453;-67
2022/02/04 03:08:06;;;;;;;1.10;0.90;;;7.40;98.00;;;;;;5094686;28;20462;-67
2022/02/04 03:10:35;;;;;;;1.20;1.00;;;7.40;98.00;;;;;;5094854;28;20453;-67
2022/02/04 03:13:02;;;;;;;1.10;0.90;;;7.20;98.00;;;;;;5094635;28;20520;-67
2022/02/04 03:15:29;;;;;;;1.30;1.20;;;7.20;98.00;;;;;;5094373;28;20456;-67
2022/02/04 03:18:02;;;;;;;1.40;1.30;;;7.20;98.00;;;;;;5094383;28;20486;-67
2022/02/04 03:20:29;;;;;;;1.50;1.00;;;7.10;98.00;;;;;;5094565;28;20463;-67
2022/02/04 03:22:58;;;;;;;1.10;1.00;;;7.10;98.00;;;;;;5094354;28;20458;-67
2022/02/04 03:25:26;;;;;;;1.10;1.03;;;7.20;98.00;;;;;;5094509;28;20948;-67
2022/02/04 03:27:58;;;;;;;1.10;1.00;;;7.20;98.00;;;;;;5094299;28;20461;-67
2022/02/04 03:30:29;;;;;;;1.20;1.10;;;7.20;98.00;;;;;;5093211;28;20886;-67
2022/02/04 03:33:01;;;;;;;1.20;1.00;;;7.20;98.00;;;;;;5094462;28;20807;-67
2022/02/04 03:35:28;;;;;;;1.10;0.90;;;7.00;98.00;;;;;;5094478;28;20462;-67
2022/02/04 03:37:56;;;;;;;1.10;1.00;;;7.00;98.00;;;;;;5094094;28;20529;-67
2022/02/04 03:40:24;;;;;;;1.20;1.10;;;7.10;98.00;;;;;;5094217;28;20836;-67
2022/02/04 03:42:51;;;;;;;1.20;1.10;;;7.10;98.00;;;;;;5094239;28;20497;-67
2022/02/04 03:45:22;;;;;;;1.13;1.10;;;7.20;98.00;;;;;;5094210;28;20616;-67
2022/02/04 03:47:49;;;;;;;1.10;1.00;;;7.10;98.00;;;;;;5093728;28;20479;-67
2022/02/04 03:50:16;;;;;;;1.10;1.00;;;7.20;98.00;;;;;;5094115;28;20493;-67
2022/02/04 03:52:43;;;;;;;1.10;0.90;;;7.10;98.00;;;;;;5094011;28;20509;-67
2022/02/04 03:55:11;;;;;;;1.10;1.00;;;7.00;98.00;;;;;;5093971;28;20866;-67
2022/02/04 03:57:39;;;;;;;1.20;1.10;;;7.00;98.00;;;;;;5093924;28;20548;-67
2022/02/04 04:00:08;;;;;;;2.07;1.00;;;7.00;98.00;;;;;;5094249;28;20521;-67
2022/02/04 04:02:37;;;;;;;1.40;1.30;;;7.10;98.00;;;;;;5093528;28;20866;-67
2022/02/04 04:05:04;;;;;;;1.60;1.10;;;7.10;98.00;;;;;;5093900;28;20533;-67
2022/02/04 04:07:31;;;;;;;1.10;1.00;;;7.20;98.00;;;;;;5093582;28;20460;-67
2022/02/04 04:10:05;;;;;;;1.30;1.30;;;7.20;98.00;;;;;;5093459;28;20467;-67
2022/02/04 04:12:32;;;;;;;1.93;1.33;;;7.20;98.00;;;;;;5093464;28;20823;-67
2022/02/04 04:15:05;;;;;;;1.10;1.00;;;7.30;98.00;;;;;;5093357;28;20455;-67
2022/02/04 04:17:38;;;;;;;1.20;1.10;;;7.40;98.00;;;;;;5093277;28;20971;-67
2022/02/04 04:20:08;;;;;;;1.73;1.10;;;7.40;98.00;;;;;;5093314;28;20488;-67
2022/02/04 04:22:35;;;;;;;1.10;0.90;;;7.30;98.00;;;;;;5093270;28;20494;-67
2022/02/04 04:25:03;;;;;;;1.93;1.10;;;7.20;98.00;;;;;;5093206;28;20480;-67
2022/02/04 04:27:31;;;;;;;1.10;1.10;;;7.10;98.00;;;;;;5093039;28;20445;-67
2022/02/04 04:29:58;;;;;;;1.93;1.10;;;7.00;98.00;;;;;;5092001;28;20458;-67
2022/02/04 04:32:26;;;;;;;1.30;1.00;;;7.00;98.00;;;;;;5093097;28;20981;-67
2022/02/04 04:34:53;;;;;;;1.40;1.30;;;7.00;98.00;;;;;;5093089;28;20486;-67
2022/02/04 04:37:23;;;;;;;1.10;1.00;;;6.90;98.00;;;;;;5092909;28;20527;-67
2022/02/04 04:40:03;;;;;;;1.10;1.00;;;6.90;98.00;;;;;;5093207;28;20481;-67
2022/02/04 04:42:47;;;;;;;1.30;1.20;;;6.80;98.00;;;;;;5092759;28;20452;-67
2022/02/04 05:27:20;;;;;;;1.10;1.00;;;6.80;98.00;;;;;;5092358;28;20487;-67
2022/02/04 05:29:38;;;;;;;1.20;1.07;;;6.70;98.00;;;;;;5092273;28;20451;-67
2022/02/04 05:32:06;;;;;;;1.10;1.00;;;6.70;98.00;;;;;;5091954;28;20499;-67
2022/02/04 05:34:33;;;;;;;1.10;1.00;;;6.70;98.00;;;;;;5092134;28;20458;-67
2022/02/04 05:37:03;;;;;;;1.10;1.10;;;6.80;98.00;;;;;;5091944;28;20528;-67
2022/02/04 05:39:37;;;;;;;1.10;0.93;;;6.80;98.00;;;;;;5092092;28;20461;-67
2022/02/04 05:42:08;;;;;;;1.40;1.30;;;7.00;98.00;;;;;;5091644;28;20533;-67
2022/02/04 05:44:41;;;;;;;1.40;1.40;;;7.10;98.00;;;;;;5091896;28;20948;-67
2022/02/04 05:47:15;;;;;;;2.90;2.00;;;7.10;98.00;;;;;;5090755;28;20977;-67
2022/02/04 05:49:50;;;;;;;1.10;0.97;;;7.00;98.00;;;;;;5091196;28;20529;-67
2022/02/04 05:52:23;;;;;;;1.53;1.43;;;6.90;98.00;;;;;;5090413;28;20550;-67
2022/02/04 05:55:03;;;;;;;1.20;1.10;;;6.80;98.00;;;;;;5091252;28;20453;-67
2022/02/04 05:57:53;;;;;;;1.70;1.37;;;6.80;98.00;;;;;;5091850;28;20485;-67
2022/02/04 06:00:37;;;;;;;1.90;1.50;;;6.70;98.00;;;;;;5091440;28;20468;-67
2022/02/04 06:03:26;;;;;;;1.20;1.10;;;6.70;98.00;;;;;;5091595;28;20458;-67
2022/02/04 06:06:10;;;;;;;1.10;1.10;;;6.60;98.00;;;;;;5091631;28;20487;-67
2022/02/04 06:09:02;;;;;;;1.20;1.13;;;6.50;98.00;;;;;;5091630;28;20481;-67
2022/02/04 06:11:39;;;;;;;1.20;1.10;;;6.50;98.00;;;;;;5095569;28;20534;-67
2022/02/04 06:22:24;;;;;;;4.70;1.33;;;6.40;98.00;;;;;;5095743;28;20454;-67
2022/02/04 06:24:52;;;;;;;1.20;1.00;;;6.50;98.00;;;;;;5095740;28;20452;-67
2022/02/04 06:27:23;;;;;;;1.50;1.13;;;6.60;98.00;;;;;;5095407;28;20487;-67
2022/02/04 06:29:53;;;;;;;1.10;1.00;;;6.60;98.00;;;;;;5095853;28;20542;-67
2022/02/04 06:32:21;;;;;;;1.20;1.20;;;6.70;98.00;;;;;;5095376;28;20934;-67
2022/02/04 06:34:49;;;;;;;3.33;1.77;;;6.80;98.00;;;;;;5095565;28;20546;-67
2022/02/04 06:37:16;;;;;;;1.40;1.27;;;6.90;98.00;;;;;;5095314;28;20544;-67
2022/02/04 06:39:43;;;;;;;1.10;1.00;;;7.00;98.00;;;;;;5095683;28;20511;-67
2022/02/04 06:42:11;;;;;;;1.50;1.23;;;7.00;98.00;;;;;;5095302;28;20847;-67
2022/02/04 06:44:37;;;;;;;1.10;1.00;;;7.00;98.00;;;;;;5095597;28;20456;-67
2022/02/04 06:47:06;;;;;;;1.13;1.10;;;6.90;98.00;;;;;;5095063;28;20548;-67
2022/02/04 06:49:33;;;;;;;1.40;1.30;;;6.80;98.00;;;;;;5095823;28;20484;-67
2022/02/04 06:52:02;;;;;;;1.20;1.17;;;6.70;98.00;;;;;;5093380;28;20553;-67
2022/02/04 06:54:30;;;;;;;1.60;1.50;;;6.60;98.00;;;;;;5095406;28;20536;-67
2022/02/04 06:57:04;;;;;;;1.50;1.23;;;6.60;98.00;;;;;;5095111;28;20457;-67
2022/02/04 06:59:31;;;;;;;1.10;1.10;;;6.60;98.00;;;;;;5094940;28;20874;-67
2022/02/04 07:01:58;;;;;;;1.10;1.00;;;6.60;98.00;;;;;;5095135;28;20835;-70
2022/02/04 07:04:30;;;;;;;1.10;0.90;;;6.60;98.00;;;;;;5094718;28;20460;-69
2022/02/04 07:06:58;;;;;;;4.70;2.53;;;6.50;98.00;;;;;;5094653;28;20460;-69
2022/02/04 07:09:39;;;;;;;1.30;1.20;;;6.60;98.00;;;;;;5094735;28;20453;-68
2022/02/04 07:12:24;;;;;;;1.70;1.60;;;6.60;98.00;;;;;;5094659;28;20515;-68
2022/02/04 07:15:21;;;;;;;1.20;1.20;;;6.80;98.00;;;;;;5093598;28;20888;-69
2022/02/04 07:18:02;;;;;;;1.10;1.00;;;6.70;98.00;;;;;;5093517;28;20573;-69
2022/02/04 07:20:30;;;;;;;1.67;1.67;;;6.60;98.00;;;;;;5093534;28;20458;-69
2022/02/04 07:22:57;;;;;;;1.40;1.20;;;6.60;98.00;;;;;;5093684;28;20555;-69
2022/02/04 07:25:24;;;;;;;2.03;1.00;;;6.60;98.00;;;;;;5094300;28;20884;-69
2022/02/04 07:27:51;;;;;;;1.10;1.00;;;6.60;98.00;;;;;;5094371;28;20515;-69
2022/02/04 07:30:18;;;;;;;1.60;1.23;;;6.80;98.00;;;;;;5094372;28;20455;-68
2022/02/04 07:32:54;;;;;;;1.30;1.10;;;6.70;98.00;;;;;;5094228;28;20469;-68
2022/02/04 07:40:56;;;;;;;1.57;1.53;;;6.70;98.00;;;;;;5094229;28;20790;-68
2022/02/04 07:43:25;;;;;;;1.10;0.90;;;6.70;98.00;;;;;;5094238;28;20456;-68
2022/02/04 07:45:52;;;;;;;1.80;1.30;;;6.70;98.00;;;;;;5094193;28;20513;-69
2022/02/04 07:48:19;;;;;;;1.70;1.23;;;6.70;98.00;;;;;;5092901;28;20457;-68
2022/02/04 07:50:48;;;;;;;1.10;1.00;;;6.60;98.00;;;;;;5094037;28;21012;-68
2022/02/04 07:53:17;;;;;;;1.60;1.47;;;6.50;98.00;;;;;;5092526;28;20477;-69
2022/02/04 07:55:45;;;;;;;1.40;1.30;;;6.60;98.00;;;;;;5094086;28;20567;-68
2022/02/04 07:58:15;;;;;;;1.20;1.10;;;6.50;98.00;;;;;;5093983;28;21066;-68
2022/02/04 08:00:46;;;;;;;1.20;1.10;;;6.60;98.00;;;;;;5093896;28;20511;-69
2022/02/04 08:03:29;;;;;;;1.20;1.20;;;6.60;98.00;;;;;;5093761;28;20962;-68
2022/02/04 08:06:01;;;;;;;1.70;1.30;;;6.70;98.00;;;;;;5093985;28;20492;-68
2022/02/04 08:08:35;;;;;;;1.10;1.00;;;6.60;98.00;;;;;;5093889;28;20874;-68
2022/02/04 08:11:18;;;;;;;1.10;1.00;;;6.60;98.00;;;;;;5093835;28;20466;-67
2022/02/04 08:14:09;;;;;;;1.70;1.50;;;6.60;98.00;;;;;;5093865;28;20998;-69
2022/02/04 08:19:37;;;;;;;1.10;1.00;;;6.50;98.00;;;;;;5071656;28;20477;-69
2022/02/04 08:25:03;;;;;;;1.30;1.30;;;6.40;98.00;;;;;;5091283;28;20454;-68
2022/02/04 08:27:52;;;;;;;1.80;1.73;;;6.50;98.00;;;;;;5093191;28;20465;-68
2022/02/04 08:30:44;;;;;;;1.23;1.10;;;6.60;98.00;;;;;;5092794;28;20460;-68
2022/02/04 08:36:14;;;;;;;1.10;1.10;;;6.70;98.00;;;;;;5093196;28;21001;-69
2022/02/04 08:52:51;;;;;;;1.50;1.43;;;7.00;98.00;;;;;;5095847;28;20470;-68
2022/02/04 08:55:24;;;;;;;1.50;1.10;;;7.00;98.00;;;;;;5091835;28;20452;-68
2022/02/04 08:58:03;;;;;;;1.53;1.50;;;6.90;98.00;;;;;;5105782;28;20463;-69
2022/02/04 09:00:35;;;;;;;1.40;1.30;;;6.90;98.00;;;;;;5093368;28;20456;-68
2022/02/04 09:03:13;;;;;;;1.10;0.90;;;6.90;98.00;;;;;;5099592;28;20453;-70
2022/02/04 09:05:44;;;;;;;1.40;1.30;;;6.80;98.00;;;;;;5101096;28;20451;-71
2022/02/04 09:08:24;;;;;;;1.30;1.20;;;6.90;98.00;;;;;;5090785;28;20796;-71
2022/02/04 09:10:53;;;;;;;1.20;1.20;;;6.90;98.00;;;;;;5097693;28;20453;-69
2022/02/04 09:18:51;;;;;;;1.20;1.20;;;6.90;98.00;;;;;;5112934;28;20480;-69
2022/02/04 09:21:48;;;;;;;1.57;1.23;;;7.00;98.00;;;;;;5112581;28;20460;-69
2022/02/04 09:24:15;;;;;;;1.10;0.90;;;7.20;98.00;;;;;;5111712;28;20472;-69
2022/02/04 09:26:45;;;;;;;1.50;1.20;;;7.30;98.00;;;;;;5112868;28;20549;-69
2022/02/04 09:29:14;;;;;;;1.90;1.13;;;7.50;98.00;;;;;;5110771;28;20979;-71
2022/02/04 09:31:41;;;;;;;1.10;1.00;;;7.50;98.00;;;;;;5112625;28;20489;-70
2022/02/04 09:34:09;;;;;;;1.57;1.07;;;7.50;98.00;;;;;;5112828;28;20483;-70
2022/02/04 09:36:37;;;;;;;1.40;1.20;;;7.60;98.00;;;;;;5112397;28;20462;-70
2022/02/04 09:39:06;;;;;;;1.10;1.00;;;7.60;98.00;;;;;;5112316;28;20522;-70
2022/02/04 09:41:34;;;;;;;1.17;1.07;;;7.60;98.00;;;;;;5112588;28;20872;-70
2022/02/04 09:44:01;;;;;;;1.40;1.30;;;7.60;98.00;;;;;;5111987;28;20450;-70
2022/02/04 09:46:34;;;;;;;1.20;1.10;;;7.50;98.00;;;;;;5112097;28;20480;-70
2022/02/04 09:49:22;;;;;;;1.10;1.00;;;7.60;98.00;;;;;;5112442;28;20498;-70
2022/02/04 10:14:41;;;;;;;1.20;1.00;;;8.40;98.00;;;;;;5112104;28;20432;-70
2022/02/04 10:17:12;;;;;;;1.50;1.10;;;8.50;98.00;;;;;;5112012;28;20454;-70
2022/02/04 10:19:49;;;;;;;1.20;1.07;;;8.60;98.00;;;;;;5111697;28;20511;-70
2022/02/04 10:22:21;;;;;;;1.20;1.10;;;8.70;98.00;;;;;;5112061;28;20457;-70
2022/02/04 10:24:57;;;;;;;1.17;1.00;;;8.80;98.00;;;;;;5111862;28;20939;-70
2022/02/04 10:27:26;;;;;;;1.27;1.23;;;8.80;98.00;;;;;;5111852;28;20488;-70
2022/02/04 10:29:56;;;;;;;1.73;1.70;;;8.80;98.00;;;;;;5111918;28;20486;-70
2022/02/04 10:32:40;;;;;;;1.20;1.10;;;8.80;98.00;;;;;;5111993;28;20501;-70
2022/02/04 10:35:15;;;;;;;1.20;1.00;;;8.80;98.00;;;;;;5111778;28;20486;-70
2022/02/04 10:37:44;;;;;;;1.17;1.00;;;8.70;98.00;;;;;;5111764;28;20498;-70
2022/02/04 10:40:37;;;;;;;1.30;1.20;;;8.60;98.00;;;;;;5111816;28;20478;-70
2022/02/04 10:43:23;;;;;;;1.20;1.00;;;8.60;98.00;;;;;;5111950;28;20462;-70
2022/02/04 10:46:08;;;;;;;1.20;1.00;;;8.50;98.00;;;;;;5111421;28;20457;-70
2022/02/04 11:00:02;;;;;;;1.20;1.00;;;8.50;98.00;;;;;;5114677;28;20468;-70
2022/02/04 11:02:54;;;;;;;1.20;1.00;;;8.40;98.00;;;;;;5114836;28;20546;-70
2022/02/04 11:05:27;;;;;;;1.10;1.00;;;8.50;98.00;;;;;;5114925;28;20511;-70
2022/02/04 11:11:17;;;;;;;1.20;1.00;;;8.40;98.00;;;;;;5114575;28;20815;-70
2022/02/04 11:36:48;;;;;;;1.20;1.00;;;8.90;98.00;;;;;;5114292;28;20443;-70
2022/02/04 11:49:34;;;;;;;1.20;1.00;;;8.80;98.00;;;;;;5114330;28;20449;-70
2022/02/04 11:54:43;;;;;;;1.20;1.00;;;8.80;98.00;;;;;;5114009;28;20533;-70
2022/02/04 11:57:26;;;;;;;1.20;1.00;;;8.90;98.00;;;;;;5114240;28;20484;-70
2022/02/04 12:00:02;;;;;;;1.20;1.00;;;9.00;98.00;;;;;;5114213;28;20487;-70
2022/02/04 12:02:33;;;;;;;1.17;1.00;;;9.00;98.00;;;;;;5114055;28;20530;-70
2022/02/04 12:05:29;;;;;;;1.20;1.00;;;8.80;98.00;;;;;;5113603;28;20451;-70
2022/02/04 12:08:27;;;;;;;1.20;1.03;;;8.80;98.00;;;;;;5113954;28;20515;-71
2022/02/04 12:10:56;;;;;;;1.20;1.00;;;8.70;98.00;;;;;;5114144;28;20455;-71
2022/02/04 12:13:26;;;;;;;1.20;1.00;;;8.70;98.00;;;;;;5113851;28;20558;-71
2022/02/04 12:16:02;;;;;;;1.20;0.90;;;8.70;98.00;;;;;;5113010;28;20503;-70
2022/02/04 12:19:02;;;;;;;1.20;1.00;;;8.70;98.00;;;;;;5114120;28;20883;-71
2022/02/04 12:21:46;;;;;;;1.20;1.00;;;9.00;98.00;;;;;;5113877;28;20452;-70
2022/02/04 12:24:37;;;;;;;1.20;1.00;;;9.10;98.00;;;;;;5114197;28;20465;-70
2022/02/04 12:27:26;;;;;;;1.20;1.00;;;9.20;98.00;;;;;;5113868;28;20455;-71
2022/02/04 12:29:56;;;;;;;1.20;1.10;;;9.20;98.00;;;;;;5103870;28;20513;-70
2022/02/04 12:32:23;;;;;;;1.20;1.00;;;9.20;98.00;;;;;;5113425;28;20962;-70
2022/02/04 12:34:51;;;;;;;1.20;1.00;;;9.20;98.00;;;;;;5113525;28;20552;-70
2022/02/04 12:37:20;;;;;;;1.30;1.10;;;9.10;98.00;;;;;;5113466;28;20455;-71
2022/02/04 12:39:48;;;;;;;1.30;1.10;;;9.10;98.00;;;;;;5113251;28;20566;-70
2022/02/04 12:42:19;;;;;;;1.30;1.20;;;8.90;98.00;;;;;;5113113;28;20456;-70
2022/02/04 12:44:49;;;;;;;1.20;1.00;;;8.80;98.00;;;;;;5113319;28;20461;-70
2022/02/04 12:47:22;;;;;;;1.20;1.00;;;8.80;98.00;;;;;;5112959;28;20455;-70
2022/02/04 12:50:01;;;;;;;1.20;1.10;;;8.80;98.00;;;;;;5113019;28;20451;-69
2022/02/04 12:52:34;;;;;;;1.20;1.20;;;8.70;98.00;;;;;;5112710;28;20930;-70
2022/02/04 12:55:07;;;;;;;1.20;1.20;;;8.70;98.00;;;;;;5112949;28;20484;-69
2022/02/04 12:57:39;;;;;;;1.20;1.00;;;8.70;98.00;;;;;;5113475;28;20696;-71
2022/02/04 13:00:22;;;;;;;1.20;1.00;;;8.70;98.00;;;;;;5112951;28;20512;-70
2022/02/04 13:08:23;;;;;;;1.20;1.10;;;8.90;98.00;;;;;;5112667;28;20445;-70
2022/02/04 13:11:00;;;;;;;1.20;1.00;;;8.90;98.00;;;;;;5112965;28;20941;-70
2022/02/04 13:13:31;;;;;;;1.20;1.00;;;8.90;98.00;;;;;;5113086;28;20520;-70
2022/02/04 13:15:58;;;;;;;1.20;1.00;;;8.90;98.00;;;;;;5112793;28;20510;-70
2022/02/04 13:18:27;;;;;;;1.17;1.00;;;8.90;98.00;;;;;;5112698;28;20525;-70
2022/02/04 13:20:57;;;;;;;1.20;1.00;;;8.90;98.00;;;;;;5112162;28;20517;-70
2022/02/04 13:23:28;;;;;;;1.20;1.10;;;9.00;98.00;;;;;;5112673;28;20474;-70
2022/02/04 13:25:59;;;;;;;2.13;1.17;;;9.10;98.00;;;;;;5112562;28;20543;-70
2022/02/04 13:28:30;;;;;;;1.20;1.00;;;9.10;98.00;;;;;;5112609;28;20482;-70
2022/02/04 13:31:01;;;;;;;1.20;1.00;;;9.10;98.00;;;;;;5112688;28;20486;-70
2022/02/04 13:33:32;;;;;;;1.20;1.00;;;9.10;98.00;;;;;;5112387;28;20592;-70
2022/02/04 13:36:15;;;;;;;1.20;1.10;;;9.10;98.00;;;;;;5112282;28;20510;-70
2022/02/04 13:38:50;;;;;;;1.20;1.00;;;9.20;98.00;;;;;;5111076;28;20545;-70
2022/02/04 13:41:27;;;;;;;1.20;1.00;;;9.20;98.00;;;;;;5107556;28;20490;-73
2022/02/04 13:44:26;;;;;;;2.93;1.40;;;9.10;98.00;;;;;;5081626;28;20460;-71
2022/02/04 13:47:00;;;;;;;2.33;1.73;;;8.90;98.00;;;;;;5098909;28;20847;-71
2022/02/04 13:49:49;;;;;;;1.20;1.00;;;8.80;98.00;;;;;;5103204;28;20468;-72
2022/02/04 13:52:21;;;;;;;1.20;1.00;;;8.80;98.00;;;;;;5091978;28;21040;-71
2022/02/04 13:55:10;;;;;;;1.20;1.00;;;8.80;98.00;;;;;;5099333;28;21133;-71
2022/02/04 13:57:43;;;;;;;1.20;1.00;;;8.70;98.00;;;;;;5095983;28;20466;-73
2022/02/04 14:00:24;;;;;;;1.20;1.03;;;8.60;98.00;;;;;;5102953;28;20475;-70
2022/02/04 14:02:56;;;;;;;1.20;1.10;;;8.60;98.00;;;;;;5101049;28;20533;-70
2022/02/04 14:05:31;;;;;;;1.20;1.00;;;8.70;98.00;;;;;;5090220;28;20463;-70
2022/02/04 14:08:07;;;;;;;1.20;1.00;;;8.70;98.00;;;;;;5092018;28;20459;-71
2022/02/04 14:10:41;;;;;;;1.20;1.00;;;8.70;98.00;;;;;;5090741;28;20449;-71
2022/02/04 14:13:09;;;;;;;1.20;1.00;;;8.70;98.00;;;;;;5089433;28;20592;-70
2022/02/04 14:15:38;;;;;;;1.53;1.37;;;8.60;98.00;;;;;;5092905;28;21105;-70
2022/02/04 14:18:08;;;;;;;1.30;1.10;;;8.60;98.00;;;;;;5092815;28;20549;-71
2022/02/04 14:20:40;;;;;;;2.07;1.53;;;8.60;98.00;;;;;;5106627;28;20598;-70
2022/02/04 14:23:08;;;;;;;1.20;0.93;;;8.60;98.00;;;;;;5090597;28;20463;-71
2022/02/04 14:25:54;;;;;;;1.17;0.90;;;8.50;98.00;;;;;;5089900;28;20456;-71
2022/02/04 14:28:27;;;;;;;1.20;1.00;;;8.50;98.00;;;;;;5102001;28;20466;-73
2022/02/04 14:31:01;;;;;;;1.10;0.90;;;8.40;98.00;;;;;;5090236;28;20458;-70
2022/02/04 14:36:50;;;;;;;1.20;1.20;;;8.40;98.00;;;;;;5147606;27;20576;-71
2022/02/04 14:51:04;;;;;;;1.20;1.00;;;8.40;98.00;;;;;;5126190;28;20436;-71
2022/02/04 14:53:42;;;;;;;1.20;1.03;;;8.40;98.00;;;;;;5119332;28;20821;-71
2022/02/04 15:01:52;;;;;;;1.20;0.90;;;8.30;98.00;;;;;;5106371;27;20454;-72
2022/02/04 15:04:35;;;;;;;1.20;1.00;;;8.20;98.00;;;;;;5126309;28;20458;-71
2022/02/04 15:07:03;;;;;;;1.10;1.00;;;8.20;98.00;;;;;;5119363;28;20811;-71
2022/02/04 15:09:33;;;;;;;1.20;1.00;;;8.10;98.00;;;;;;5126744;28;20468;-71
2022/02/04 15:12:00;;;;;;;1.20;1.00;;;8.10;98.00;;;;;;5126593;28;20511;-71
2022/02/04 15:14:27;;;;;;;1.20;1.00;;;8.20;98.00;;;;;;5126190;28;20985;-72
2022/02/04 15:16:54;;;;;;;1.30;1.23;;;8.10;98.00;;;;;;5126823;28;20486;-71
2022/02/04 15:19:23;;;;;;;1.40;1.20;;;8.00;98.00;;;;;;5126021;28;20489;-71
2022/02/04 15:21:53;;;;;;;1.20;1.00;;;7.90;98.00;;;;;;5126340;27;20983;-71
2022/02/04 15:24:21;;;;;;;1.20;0.90;;;7.90;98.00;;;;;;5126022;27;20569;-72
2022/02/04 15:26:49;;;;;;;1.20;1.00;;;8.00;98.00;;;;;;5124989;28;20978;-71
2022/02/04 15:29:18;;;;;;;1.20;0.90;;;8.10;98.00;;;;;;5125986;28;20458;-71
2022/02/04 15:31:49;;;;;;;1.20;1.00;;;8.10;98.00;;;;;;5126293;28;20823;-72
2022/02/04 15:34:17;;;;;;;1.20;1.20;;;8.00;98.00;;;;;;5125760;28;21010;-71
2022/02/04 15:36:47;;;;;;;1.17;1.00;;;8.00;98.00;;;;;;5125893;28;20456;-72
2022/02/04 15:39:16;;;;;;;1.20;1.00;;;8.00;98.00;;;;;;5125929;27;21061;-71
2022/02/04 15:41:43;;;;;;;1.20;1.00;;;8.00;98.00;;;;;;5125818;28;20574;-71
2022/02/04 15:44:16;;;;;;;1.20;0.97;;;8.00;98.00;;;;;;5125698;28;20968;-71
2022/02/04 15:47:12;;;;;;;1.20;1.00;;;8.00;98.00;;;;;;5118314;27;20546;-75
2022/02/04 15:50:16;;;;;;;1.20;1.00;;;8.00;98.00;;;;;;5110884;28;20458;-71
2022/02/04 15:52:56;;;;;;;1.17;1.00;;;8.10;98.00;;;;;;5112049;28;20530;-72
2022/02/04 15:55:44;;;;;;;1.20;0.97;;;8.10;98.00;;;;;;5111968;28;20907;-72
2022/02/04 15:58:21;;;;;;;1.20;1.00;;;8.10;98.00;;;;;;5111286;28;20925;-71
2022/02/04 16:03:45;;;;;;;1.20;1.00;;;8.10;98.00;;;;;;5106278;28;20474;-71
2022/02/04 16:06:16;;;;;;;1.20;1.00;;;8.00;98.00;;;;;;5103221;28;20528;-71
2022/02/04 16:08:43;;;;;;;1.10;0.90;;;8.00;98.00;;;;;;5102987;28;20458;-71
2022/02/04 16:11:18;;;;;;;1.20;0.90;;;8.10;98.00;;;;;;5111739;28;20470;-70
2022/02/04 16:13:51;;;;;;;1.20;0.90;;;8.00;98.00;;;;;;5111025;28;20454;-72
2022/02/04 16:16:27;;;;;;;1.20;1.00;;;8.00;98.00;;;;;;5109908;28;20494;-71
2022/02/04 16:19:03;;;;;;;1.20;1.00;;;7.90;98.00;;;;;;5110757;28;20515;-71
2022/02/04 16:21:39;;;;;;;1.20;0.90;;;8.00;98.00;;;;;;5110780;28;20454;-71
2022/02/04 16:24:32;;;;;;;1.30;1.10;;;8.00;98.00;;;;;;5111617;28;20965;-71
2022/02/04 16:27:11;;;;;;;1.20;1.00;;;7.90;98.00;;;;;;5111684;28;20455;-72
2022/02/04 16:29:39;;;;;;;1.20;1.00;;;8.00;98.00;;;;;;5110944;28;20491;-74
2022/02/04 16:32:08;;;;;;;1.20;0.90;;;8.00;98.00;;;;;;5110220;28;20465;-74
2022/02/04 16:34:35;;;;;;;1.17;1.00;;;8.00;98.00;;;;;;5103018;28;20547;-72
2022/02/04 16:37:04;;;;;;;1.20;1.00;;;8.10;98.00;;;;;;5111382;28;20477;-72
2022/02/04 16:39:35;;;;;;;1.30;1.10;;;8.00;98.00;;;;;;5103157;28;20447;-72
2022/02/04 16:42:10;;;;;;;1.20;1.00;;;8.00;98.00;;;;;;5111132;28;20451;-72
2022/02/04 16:44:38;;;;;;;1.20;1.10;;;8.00;98.00;;;;;;5111401;28;20459;-73
2022/02/04 16:47:07;;;;;;;1.20;0.90;;;8.00;98.00;;;;;;5111625;28;20483;-72
2022/02/04 16:49:34;;;;;;;1.20;0.90;;;7.90;98.00;;;;;;5110560;28;20533;-73
2022/02/04 16:52:02;;;;;;;1.20;1.07;;;7.90;98.00;;;;;;5110714;28;20486;-72
2022/02/04 16:54:31;;;;;;;1.20;1.00;;;7.90;98.00;;;;;;5110596;28;20461;-72
2022/02/04 16:56:58;;;;;;;2.80;1.83;;;7.90;98.00;;;;;;5110677;28;20490;-74
2022/02/04 16:59:25;;;;;;;1.20;1.00;;;7.90;98.00;;;;;;5109912;28;20455;-73
2022/02/04 17:01:59;;;;;;;1.40;1.00;;;7.90;98.00;;;;;;5110808;28;20486;-73
2022/02/04 17:04:28;;;;;;;1.20;0.90;;;7.90;98.00;;;;;;5109147;28;20611;-72
2022/02/04 17:07:00;;;;;;;1.20;1.10;;;8.00;98.00;;;;;;5110834;28;20487;-73
2022/02/04 17:09:32;;;;;;;1.57;1.30;;;8.00;98.00;;;;;;5110401;28;20455;-72
2022/02/04 17:12:04;;;;;;;1.20;1.10;;;8.00;98.00;;;;;;5108053;28;21321;-72
2022/02/04 17:14:34;;;;;;;1.13;0.97;;;8.00;98.00;;;;;;5108833;28;20507;-72
2022/02/04 17:17:05;;;;;;;1.20;1.00;;;7.90;98.00;;;;;;5110407;28;20571;-72
2022/02/04 17:19:40;;;;;;;1.20;1.00;;;7.90;98.00;;;;;;5110328;28;20463;-72
2022/02/04 17:22:08;;;;;;;1.20;1.00;;;7.90;98.00;;;;;;5107139;28;20462;-71
2022/02/04 17:24:36;;;;;;;1.20;0.90;;;8.00;98.00;;;;;;5109099;28;20462;-72
2022/02/04 17:27:03;;;;;;;1.20;0.90;;;8.00;98.00;;;;;;5110325;28;20498;-72
2022/02/04 17:29:32;;;;;;;1.20;1.00;;;8.00;98.00;;;;;;5110441;28;20858;-72
2022/02/04 17:31:59;;;;;;;1.20;0.90;;;8.00;98.00;;;;;;5110577;28;20911;-72
2022/02/04 17:34:27;;;;;;;1.17;0.90;;;8.00;98.00;;;;;;5109988;28;20523;-72
2022/02/04 17:36:57;;;;;;;1.20;1.00;;;8.00;98.00;;;;;;5107385;28;20577;-72
2022/02/04 17:39:25;;;;;;;1.20;0.90;;;8.00;98.00;;;;;;5108454;28;20532;-72
2022/02/04 17:41:57;;;;;;;1.20;1.00;;;8.00;98.00;;;;;;5108770;28;20456;-72
2022/02/04 17:44:24;;;;;;;1.10;0.90;;;8.00;98.00;;;;;;5109074;28;20452;-73
2022/02/04 17:46:52;;;;;;;1.20;1.17;;;7.90;98.00;;;;;;5108465;28;20875;-71
2022/02/04 17:49:24;;;;;;;1.20;1.00;;;8.00;98.00;;;;;;5107814;28;20459;-72
2022/02/04 17:51:56;;;;;;;1.20;1.00;;;7.90;98.00;;;;;;5108833;28;20458;-72
2022/02/04 17:54:33;;;;;;;1.20;0.90;;;7.90;98.00;;;;;;5108980;28;20447;-72
2022/02/04 17:57:05;;;;;;;1.20;0.97;;;7.90;98.00;;;;;;5108693;28;20496;-72
2022/02/04 18:02:34;;;;;;;1.17;0.97;;;7.90;98.00;;;;;;5101945;28;20452;-72